Relevés horaires Bierset (Belgique)


Relevés horaires à Bierset - Dimanche 08 Avr. 2018
Heure UTC1 Température [°C] Vent [km/h] Hum. [%] Pres.4 [hPa] Visi. [Km] Nébu. [octa] Préc.5 [mm] Cond.
2m. Res. Ros. Dir.2 Vit. Moy. Raf.3
23:00 13.9 13.9 10.4 NO 3.7 5.6 7.4 79 1007(0.3/3h) 30 6/8 -- --
22:00 15.5 15.5 7.6 ONO 3.7 3.7 7.4 59 1006.7(0.3/3h) 30 6/8 -- --
21:00 17.0 17.0 6.9 NNO 1.9 3.7 5.6 51 1006.4(0.7/3h) 30 6/8 -- --
20:00 17.4 17.4 7.9 NNO 1.9 3.7 5.6 54 1006.5(1.1/3h) 30 6/8 -- --
19:00 18.4 18.4 8.7 NO 3.7 3.7 5.6 53 1006.2(1.1/3h) 30 6/8 -- --
18:00 19.9 19.9 8.5 N 3.7 7.4 11.1 48 1005.5(0.5/3h) 30 6/8 0/12h
--
17:00 21.4 21.4 8.2 NNE 5.6 7.4 11.1 43 1005.1(-0.2/3h) 30 6/8 -- --
16:00 22.2 22.2 8.0 N 7.4 7.4 11.1 40 1004.8(-1.0/3h) 30 6/8 -- --
15:00 23.1 23.1 6.8 N 7.4 7.4 9.3 35 1004.8(-1.3/3h) 30 6/8 -- --
14:00 22.7 22.7 6.2 N 5.6 5.6 9.3 34 1005.2(-1.7/3h) 30 6/8 -- --
13:00 22.5 22.5 3.1 E 1.9 3.7 9.3 28 1005.9(-1.5/3h) 30 6/8 -- --
12:00 21.9 21.9 4.9 E 3.7 5.6 11.1 33 1006.3(-1.1/3h) 30 6/8 0/6h
--
11:00 20.6 20.6 6.2 NNO 1.9 3.7 7.4 39 1007.1(-0.7/3h) 30 6/8 -- --
10:00 18.7 18.7 5.7 S 3.7 5.6 11.1 42 1007.6(-0.3/3h) 30 6/8 -- --
09:00 16.4 16.4 6.5 SSE 3.7 5.6 11.1 52 1007.8(0.0/3h) 30 7/8 -- --
08:00 13.2 13.2 5.9 SSE 5.6 5.6 7.4 61 1008.3(0.5/3h) 30 6/8 -- --
07:00 13.3 13.3 4.8 S 3.7 3.7 5.6 56 1008.3(0.5/3h) 30 6/8 -- --
06:00 11.3 11.3 6.5 S 1.9 7.4 16.7 72 1008.3(-0.2/3h) 30 6/8 0/12h
--
05:00 11.2 11.2 5.8 SE 3.7 5.6 5.6 69 1007.9(-0.4/3h) 40 6/8 -- --
04:00 10.7 10.7 4.8 OSO 3.7 3.7 11.1 67 1008(-0.7/3h) 40 2/8 -- --
03:00 14.5 14.5 4.3 S 3.7 7.4 16.7 50 1007.8(-0.9/3h) 40 2/8 -- --
02:00 15.0 15 4.6 S 7.4 7.4 16.7 50 1008(-0.7/3h) 40 3/8 -- --
01:00 15.5 15.5 4.8 S 5.6 7.4 7.4 49 1008.4(-0.5/3h) 40 5/8 -- --

1 Coordinated Universal Time. Actuellement il est 10:00 locale et 08:00 UTC.

2 Le vent souffle depuis la direction indiquée vers la direction oposée.

3 Les rafales max. sont disponible 40 min après l'heure du relevé.

4 Pour les stations d'altitude (plus de 600m) le géopotentiel du niveau le plus proche de la pression obligatoire est indiqué.

5 Les stations disposant d'un diffuseur peuvent indiquer "trace". Cela signifie que des précipitations ont touchés le sol mais que la quantité est inférieure à 0.1 mm.

Récapitulatif de la journée
Température [°C] Vent [km/h] Ensoleillement4 [h] Precipitations totale5 [mm] Pression [Hpa]
Min1 Max.2 Moy.3 Max. Min Max.
10.4 23.3 5.6 16.7 0 h 0 min 0 1004.8 1008.4

1 Température minimale relevée entre 18:00 UTC la veille et 18:00 UTC le jour donné.

2 Température maximale relevée entre 06:00 UTC le jour donné et 06:00 UTC le lendemain.

3 Vent moyen de la journée basé sur les relevés horaires.

4 Ensoleillement en heures relevé entre 06:00 UTC la veille et 06:00 UTC le jour donné.

5 Précipitations totales tombées entre 06:00 UTC la jour donné et 06:00 UTC le lendemain.

Graphiques horaires